createdAt,value
2019-06-10T00:00:55.255Z,4.40
2019-06-10T00:04:06.358Z,4.25
2019-06-10T00:07:11.985Z,3.27
2019-06-10T00:10:21.331Z,4.95
2019-06-10T00:13:31.256Z,3.90
2019-06-10T00:16:37.454Z,4.78
2019-06-10T00:19:44.048Z,4.25
2019-06-10T00:22:51.529Z,4.47
2019-06-10T00:26:01.284Z,5.78
2019-06-10T00:29:07.466Z,4.30
2019-06-10T00:32:14.468Z,4.60
2019-06-10T00:35:21.306Z,10.70
2019-06-10T00:38:27.905Z,7.50
2019-06-10T00:41:34.383Z,6.95
2019-06-10T00:44:41.677Z,5.12
2019-06-10T00:47:50.776Z,6.72
2019-06-10T00:51:02.253Z,4.08
2019-06-10T00:54:08.641Z,4.37
2019-06-10T00:57:16.321Z,6.47
2019-06-10T01:00:25.744Z,5.08
2019-06-10T01:03:31.515Z,4.20
2019-06-10T01:06:38.457Z,5.00
2019-06-10T01:09:45.033Z,5.25
2019-06-10T01:12:51.599Z,4.70
2019-06-10T01:15:58.106Z,5.22
2019-06-10T01:19:05.761Z,6.17
2019-06-10T01:22:13.900Z,4.50
2019-06-10T01:25:21.655Z,3.98
2019-06-10T01:28:31.207Z,5.22
2019-06-10T01:31:37.195Z,4.33
2019-06-10T01:34:43.690Z,4.58
2019-06-10T01:37:52.016Z,4.42
2019-06-10T01:40:58.307Z,5.58
2019-06-10T01:44:06.381Z,5.33
2019-06-10T01:47:14.326Z,4.72
2019-06-10T01:50:21.858Z,4.37
2019-06-10T01:53:31.212Z,5.72
2019-06-10T01:56:38.190Z,4.72
2019-06-10T01:59:44.815Z,4.15
2019-06-10T02:02:52.416Z,5.12
2019-06-10T02:06:01.485Z,4.90
2019-06-10T02:09:12.093Z,3.47
2019-06-10T02:12:19.113Z,5.97
2019-06-10T02:15:27.195Z,4.00
2019-06-10T02:18:33.829Z,4.25
2019-06-10T02:21:41.710Z,5.55
2019-06-10T02:24:50.539Z,5.22
2019-06-10T02:27:56.635Z,4.72
2019-06-10T02:31:04.028Z,5.05
2019-06-10T02:34:13.263Z,5.55
2019-06-10T02:37:24.147Z,7.05
2019-06-10T02:40:32.090Z,5.53
2019-06-10T02:43:38.132Z,5.10
2019-06-10T02:46:44.793Z,6.65
2019-06-10T02:49:59.039Z,4.67
2019-06-10T02:52:59.668Z,5.60
2019-06-10T02:56:08.602Z,4.42
2019-06-10T02:59:20.409Z,5.67
2019-06-10T03:02:31.833Z,5.03
2019-06-10T03:05:41.069Z,4.80
2019-06-10T03:08:43.677Z,5.12
2019-06-10T03:11:53.405Z,5.08
2019-06-10T03:14:58.896Z,4.50
2019-06-10T03:18:05.398Z,4.45
2019-06-10T03:21:12.489Z,5.95
2019-06-10T03:24:19.178Z,4.12
2019-06-10T03:27:26.584Z,6.70
2019-06-10T03:30:46.772Z,6.45
2019-06-10T03:33:47.214Z,5.00
2019-06-10T03:36:50.439Z,5.70
2019-06-10T03:39:57.022Z,5.40
2019-06-10T03:43:03.446Z,5.33
2019-06-10T03:46:10.298Z,6.45
2019-06-10T03:49:17.122Z,6.10
2019-06-10T03:52:25.595Z,4.20
2019-06-10T03:55:33.071Z,5.40
2019-06-10T03:58:43.147Z,5.65
2019-06-10T04:01:47.908Z,5.17
2019-06-10T04:04:54.484Z,4.85
2019-06-10T04:08:02.136Z,5.10
2019-06-10T04:11:08.811Z,4.95
2019-06-10T04:14:17.580Z,5.80
2019-06-10T04:17:25.733Z,5.65
2019-06-10T04:20:33.177Z,4.67
2019-06-10T04:23:42.145Z,5.10
2019-06-10T04:26:48.084Z,5.58
2019-06-10T04:29:54.611Z,5.70
2019-06-10T04:33:02.309Z,6.75
2019-06-10T04:36:08.995Z,5.22
2019-06-10T04:39:15.726Z,6.00
2019-06-10T04:42:23.174Z,5.25
2019-06-10T04:45:32.450Z,4.72
2019-06-10T04:48:42.426Z,5.05
2019-06-10T04:51:48.462Z,6.58
2019-06-10T04:54:55.038Z,5.37
2019-06-10T04:58:02.515Z,6.35
2019-06-10T05:01:09.139Z,5.25
2019-06-10T05:04:15.772Z,5.50
2019-06-10T05:07:24.067Z,5.20
2019-06-10T05:10:33.242Z,4.03
2019-06-10T05:13:42.623Z,6.67
2019-06-10T05:16:48.359Z,6.95
2019-06-10T05:19:54.966Z,5.75
2019-06-10T05:23:02.868Z,6.90
2019-06-10T05:26:09.622Z,6.62
2019-06-10T05:29:16.106Z,4.60
2019-06-10T05:32:23.272Z,6.80
2019-06-10T05:35:31.601Z,5.80
2019-06-10T05:38:38.808Z,5.42
2019-06-10T05:41:45.297Z,11.70
2019-06-10T05:44:52.457Z,7.10
2019-06-10T05:48:02.199Z,8.33
2019-06-10T05:51:08.381Z,6.95
2019-06-10T05:54:15.232Z,7.65
2019-06-10T05:57:23.918Z,6.53
2019-06-10T06:00:32.430Z,6.53
2019-06-10T06:03:38.175Z,6.70
2019-06-10T06:06:45.193Z,4.47
2019-06-10T06:09:53.270Z,5.20
2019-06-10T06:12:59.827Z,5.15
2019-06-10T06:16:06.304Z,6.67
2019-06-10T06:19:13.834Z,5.58
2019-06-10T06:22:22.134Z,5.10
2019-06-10T06:25:30.472Z,5.22
2019-06-10T06:28:38.186Z,4.83
2019-06-10T06:31:47.851Z,4.72
2019-06-10T06:34:54.351Z,5.20
2019-06-10T06:38:02.624Z,4.33
2019-06-10T06:41:09.368Z,4.75
2019-06-10T06:44:15.825Z,7.35
2019-06-10T06:47:22.742Z,5.17
2019-06-10T06:50:30.827Z,4.28
2019-06-10T06:53:45.475Z,4.90
2019-06-10T06:56:45.902Z,5.28
2019-06-10T06:59:53.730Z,5.60
2019-06-10T07:03:00.384Z,5.53
2019-06-10T07:06:07.098Z,4.67
2019-06-10T07:09:13.890Z,5.37
2019-06-10T07:12:24.813Z,6.03
2019-06-10T07:15:46.553Z,4.65
2019-06-10T07:18:50.601Z,4.87
2019-06-10T07:22:11.438Z,5.65
2019-06-10T07:25:12.393Z,5.08
2019-06-10T07:28:19.597Z,6.08
2019-06-10T07:31:28.069Z,4.60
2019-06-10T07:34:36.734Z,5.25
2019-06-10T07:37:44.469Z,5.15
2019-06-10T07:40:53.089Z,4.72
2019-06-10T07:43:59.694Z,5.00
2019-06-10T07:47:06.166Z,5.42
2019-06-10T07:50:13.359Z,4.90
2019-06-10T07:53:22.112Z,4.17
2019-06-10T07:56:33.804Z,5.37
2019-06-10T07:59:37.431Z,5.90
2019-06-10T08:02:45.898Z,5.37
2019-06-10T08:05:52.649Z,5.30
2019-06-10T08:08:59.364Z,6.62
2019-06-10T08:12:06.165Z,6.42
2019-06-10T08:15:13.001Z,6.45
2019-06-10T08:18:22.543Z,5.20
2019-06-10T08:21:29.175Z,6.90
2019-06-10T08:24:37.234Z,5.28
2019-06-10T08:27:47.178Z,5.97
2019-06-10T08:30:53.373Z,5.50
2019-06-10T08:34:02.752Z,5.15
2019-06-10T08:37:08.327Z,5.87
2019-06-10T08:40:14.863Z,7.03
2019-06-10T08:43:22.674Z,5.50
2019-06-10T08:46:29.320Z,5.22
2019-06-10T08:49:37.071Z,6.00
2019-06-10T08:53:00.979Z,4.75
2019-06-10T08:55:55.305Z,6.12
2019-06-10T08:59:03.274Z,4.90
2019-06-10T09:02:12.978Z,5.60
2019-06-10T09:05:23.041Z,5.92
2019-06-10T09:08:28.894Z,6.72
2019-06-10T09:11:35.521Z,6.78
2019-06-10T09:14:44.011Z,6.22
2019-06-10T09:17:56.471Z,5.47
2019-06-10T09:21:03.266Z,5.72
2019-06-10T09:24:12.917Z,4.62
2019-06-10T09:27:26.675Z,5.58
2019-06-10T09:30:33.197Z,5.40
2019-06-10T09:33:39.651Z,5.40
2019-06-10T09:36:50.073Z,5.22
2019-06-10T09:39:59.418Z,6.28
2019-06-10T09:43:03.464Z,5.47
2019-06-10T09:46:12.644Z,6.43
2019-06-10T09:49:22.277Z,5.65
2019-06-10T09:52:29.630Z,7.00
2019-06-10T09:55:36.266Z,6.45
2019-06-10T09:58:46.276Z,5.23
2019-06-10T10:01:57.579Z,7.17
2019-06-10T10:04:59.322Z,5.80
2019-06-10T10:08:06.534Z,7.33
2019-06-10T10:11:13.271Z,5.83
2019-06-10T10:14:19.731Z,7.40
2019-06-10T10:17:26.112Z,8.83
2019-06-10T10:20:34.056Z,7.50
2019-06-10T10:23:51.177Z,5.53
2019-06-10T10:26:50.867Z,6.60
2019-06-10T10:29:57.552Z,7.40
2019-06-10T10:33:03.914Z,7.63
2019-06-10T10:36:10.161Z,6.30
2019-06-10T10:39:16.348Z,6.43
2019-06-10T10:42:23.728Z,6.33
2019-06-10T10:45:30.214Z,6.80
2019-06-10T10:48:36.430Z,6.87
2019-06-10T10:51:42.940Z,7.83
2019-06-10T10:54:51.845Z,6.80
2019-06-10T10:57:58.240Z,7.40
2019-06-10T11:01:05.015Z,6.97
2019-06-10T11:04:13.305Z,5.60
2019-06-10T11:07:19.395Z,6.23
2019-06-10T11:10:25.659Z,7.37
2019-06-10T11:13:35.509Z,7.53
2019-06-10T11:16:43.125Z,7.93
2019-06-10T11:19:52.723Z,5.43
2019-06-10T11:22:57.984Z,5.90
2019-06-10T11:26:05.713Z,7.40
2019-06-10T11:29:11.918Z,6.47
2019-06-10T11:32:18.326Z,6.30
2019-06-10T11:35:24.607Z,5.83
2019-06-10T11:38:32.939Z,6.27
2019-06-10T11:41:39.467Z,8.00
2019-06-10T11:44:46.372Z,7.00
2019-06-10T11:47:55.473Z,6.33
2019-06-10T11:51:04.280Z,8.20
2019-06-10T11:54:12.607Z,6.23
2019-06-10T11:57:17.880Z,5.93
2019-06-10T12:00:26.462Z,6.60
2019-06-10T12:03:32.870Z,6.30
2019-06-10T12:06:39.403Z,7.60
2019-06-10T12:09:45.944Z,7.57
2019-06-10T12:12:55.454Z,6.77
2019-06-10T12:16:50.786Z,8.43
2019-06-10T12:19:08.349Z,5.63
2019-06-10T12:22:14.647Z,6.17
2019-06-10T12:25:32.411Z,6.63
2019-06-10T12:28:28.911Z,7.23
2019-06-10T12:31:35.556Z,7.00
2019-06-10T12:34:45.887Z,7.30
2019-06-10T12:37:51.240Z,9.20
2019-06-10T12:41:03.223Z,7.70
2019-06-10T12:44:07.573Z,8.17
2019-06-10T12:47:13.776Z,7.43
2019-06-10T12:50:20.758Z,7.97
2019-06-10T12:53:26.992Z,7.33
2019-06-10T12:56:33.295Z,7.73
2019-06-10T12:59:39.479Z,8.33
2019-06-10T13:02:46.168Z,8.20
2019-06-10T13:05:53.494Z,5.87
2019-06-10T13:10:07.938Z,6.63
2019-06-10T13:13:15.795Z,7.80
2019-06-10T13:16:22.183Z,7.67
2019-06-10T13:19:29.295Z,6.73
2019-06-10T13:22:35.943Z,7.47
2019-06-10T13:25:51.235Z,7.77
2019-06-10T13:28:52.457Z,5.90
2019-06-10T13:31:58.227Z,7.17
2019-06-10T13:35:07.817Z,7.77
2019-06-10T13:38:14.042Z,7.27
2019-06-10T13:41:22.765Z,8.30
2019-06-10T13:44:32.097Z,6.80
2019-06-10T13:47:37.641Z,7.50
2019-06-10T13:50:43.962Z,6.37
2019-06-10T13:53:50.230Z,7.57
2019-06-10T13:56:59.051Z,7.27
2019-06-10T14:00:08.483Z,8.07
2019-06-10T14:03:16.330Z,7.13
2019-06-10T14:06:39.573Z,7.20
2019-06-10T14:09:30.426Z,8.33
2019-06-10T14:12:36.952Z,7.60
2019-06-10T14:15:43.096Z,8.27
2019-06-10T14:18:49.658Z,6.00
2019-06-10T14:22:22.835Z,6.47
2019-06-10T14:25:28.371Z,6.63
2019-06-10T14:28:40.617Z,7.37
2019-06-10T14:31:45.115Z,7.60
2019-06-10T14:34:52.619Z,7.87
2019-06-10T14:37:58.618Z,6.53
2019-06-10T14:41:06.501Z,6.77
2019-06-10T14:44:16.120Z,7.47
2019-06-10T14:47:22.966Z,7.00
2019-06-10T14:50:28.779Z,7.60
2019-06-10T14:53:35.030Z,7.23
2019-06-10T14:56:52.555Z,6.20
2019-06-10T14:59:49.328Z,8.23
2019-06-10T15:02:55.518Z,7.83
2019-06-10T15:06:03.165Z,7.00
2019-06-10T15:09:13.685Z,9.00
2019-06-10T15:12:22.618Z,7.67
2019-06-10T15:15:32.922Z,7.87
2019-06-10T15:18:38.756Z,9.20
2019-06-10T15:21:45.006Z,10.20
2019-06-10T15:24:53.222Z,6.40
2019-06-10T15:27:59.073Z,7.77
2019-06-10T15:31:08.249Z,9.13
2019-06-10T15:38:52.547Z,9.60
2019-06-10T15:41:58.913Z,8.93
2019-06-10T15:45:09.809Z,7.60
2019-06-10T15:48:18.265Z,8.87
2019-06-10T15:51:26.010Z,8.13
2019-06-10T15:54:33.384Z,8.10
2019-06-10T15:57:43.103Z,9.23
2019-06-10T16:00:47.701Z,10.00
2019-06-10T16:03:54.041Z,7.87
2019-06-10T16:07:02.497Z,9.30
2019-06-10T16:10:12.813Z,7.60
2019-06-10T16:13:21.337Z,7.83
2019-06-10T16:16:27.523Z,9.00
2019-06-10T16:19:33.732Z,8.50
2019-06-10T16:22:39.961Z,9.00
2019-06-10T16:25:46.079Z,9.27
2019-06-10T16:28:52.360Z,7.73
2019-06-10T16:31:58.508Z,7.37
2019-06-10T16:35:06.913Z,11.03
2019-06-10T16:38:13.367Z,9.53
2019-06-10T16:41:21.659Z,7.87
2019-06-10T16:44:28.341Z,11.00
2019-06-10T16:47:37.222Z,9.37
2019-06-10T16:50:47.033Z,8.67
2019-06-10T16:53:52.962Z,9.27
2019-06-10T16:56:59.309Z,11.03
2019-06-10T17:00:11.286Z,10.70
2019-06-10T17:03:14.698Z,9.73
2019-06-10T17:06:22.454Z,9.93
2019-06-10T17:09:29.524Z,10.50
2019-06-10T17:12:35.940Z,11.50
2019-06-10T17:15:46.824Z,9.50
2019-06-10T17:18:53.196Z,12.00
2019-06-10T17:22:01.018Z,11.00
2019-06-10T17:25:12.967Z,10.60
2019-06-10T17:28:20.185Z,10.73
2019-06-10T17:31:30.533Z,10.70
2019-06-10T17:34:34.862Z,10.27
2019-06-10T17:37:43.205Z,12.73
2019-06-10T17:40:52.112Z,10.77
2019-06-10T17:43:59.509Z,12.30
2019-06-10T17:47:08.808Z,9.43
2019-06-10T17:50:15.143Z,9.83
2019-06-10T17:53:22.392Z,9.43
2019-06-10T17:56:29.826Z,10.13
2019-06-10T17:59:37.277Z,9.10
2019-06-10T18:02:43.818Z,9.83
2019-06-10T18:05:53.063Z,8.53
2019-06-10T18:08:58.405Z,10.50
2019-06-10T18:12:07.855Z,10.13
2019-06-10T18:19:56.580Z,7.17
2019-06-10T18:23:05.231Z,8.73
2019-06-10T18:26:12.389Z,8.43
2019-06-10T18:29:22.938Z,9.70
2019-06-10T18:32:32.446Z,8.93
2019-06-10T18:35:38.135Z,9.38
2019-06-10T18:38:44.750Z,8.63
2019-06-10T18:41:52.893Z,11.78
2019-06-10T18:45:02.687Z,11.60
2019-06-10T18:48:12.536Z,11.25
2019-06-10T18:51:18.319Z,13.55
2019-06-10T18:54:24.839Z,11.70
2019-06-10T18:57:33.524Z,16.07
2019-06-10T19:00:53.393Z,9.55
2019-06-10T19:03:47.948Z,12.85
2019-06-10T19:06:54.430Z,9.85
2019-06-10T19:10:02.323Z,10.98
2019-06-10T19:13:09.856Z,10.70
2019-06-10T19:16:16.329Z,9.85
2019-06-10T19:19:23.077Z,11.68
2019-06-10T19:22:30.073Z,11.38
2019-06-10T19:25:39.732Z,9.93
2019-06-10T19:28:45.892Z,9.95
2019-06-10T19:31:52.727Z,8.13
2019-06-10T19:34:59.388Z,7.12
2019-06-10T19:38:08.868Z,8.25
2019-06-10T19:41:15.433Z,6.78
2019-06-10T19:44:23.470Z,6.72
2019-06-10T19:47:32.588Z,6.30
2019-06-10T19:50:39.407Z,5.57
2019-06-10T19:53:46.615Z,6.30
2019-06-10T19:56:54.305Z,4.83
2019-06-10T20:00:10.512Z,6.55
2019-06-10T20:03:10.806Z,5.30
2019-06-10T20:06:17.268Z,5.05
2019-06-10T20:09:23.939Z,5.62
2019-06-10T20:12:32.437Z,5.35
2019-06-10T20:15:39.478Z,5.10
2019-06-10T20:18:49.326Z,5.37
2019-06-10T20:21:54.335Z,6.67
2019-06-10T20:25:03.653Z,4.28
2019-06-10T20:28:09.256Z,5.47
2019-06-10T20:31:15.689Z,5.75
2019-06-10T20:34:24.402Z,5.97
2019-06-10T20:37:32.528Z,5.53
2019-06-10T20:40:38.610Z,5.30
2019-06-10T20:43:47.290Z,5.15
2019-06-10T20:46:53.882Z,5.97
2019-06-10T20:50:03.093Z,6.55
2019-06-10T20:53:15.503Z,5.47
2019-06-10T20:56:20.126Z,6.12
2019-06-10T20:59:26.213Z,6.78
2019-06-10T21:02:33.259Z,6.08
2019-06-10T21:05:45.598Z,4.30
2019-06-10T21:08:54.376Z,5.37
2019-06-10T21:12:02.061Z,5.20
2019-06-10T21:15:09.643Z,7.72
2019-06-10T21:18:16.402Z,5.90
2019-06-10T21:21:24.895Z,5.17
2019-06-10T21:24:32.329Z,6.00
2019-06-10T21:27:38.866Z,5.17
2019-06-10T21:30:49.660Z,6.75
2019-06-10T21:33:55.736Z,5.95
2019-06-10T21:37:03.159Z,4.67
2019-06-10T21:40:13.503Z,7.60
2019-06-10T21:43:22.200Z,7.80
2019-06-10T21:46:29.632Z,6.97
2019-06-10T21:49:36.040Z,5.55
2019-06-10T21:52:45.780Z,5.95
2019-06-10T21:55:54.901Z,6.70
2019-06-10T21:59:02.412Z,6.97
2019-06-10T22:02:08.892Z,7.15
2019-06-10T22:05:18.847Z,6.33
2019-06-10T22:08:25.365Z,6.72
2019-06-10T22:11:32.080Z,8.45
2019-06-10T22:14:39.029Z,6.90
2019-06-10T22:17:46.250Z,5.85
2019-06-10T22:20:57.253Z,7.85
2019-06-10T22:24:02.370Z,6.97
2019-06-10T22:27:09.079Z,6.90
2019-06-10T22:30:15.801Z,5.95
2019-06-10T22:33:22.721Z,10.23
2019-06-10T22:36:29.321Z,7.95
2019-06-10T22:39:35.665Z,7.08
2019-06-10T22:42:42.247Z,7.75
2019-06-10T22:45:53.801Z,8.15
2019-06-10T22:48:59.550Z,7.60
2019-06-10T22:52:06.664Z,6.97
2019-06-10T22:55:13.826Z,7.87
2019-06-10T22:58:23.467Z,8.15
2019-06-10T23:01:37.448Z,7.75
2019-06-10T23:04:38.894Z,6.20
2019-06-10T23:07:45.405Z,5.97
2019-06-10T23:10:53.788Z,6.53
2019-06-10T23:14:00.077Z,7.87
2019-06-10T23:17:08.625Z,7.65
2019-06-10T23:20:15.206Z,8.63
2019-06-10T23:23:23.295Z,7.85
2019-06-10T23:26:29.792Z,9.05
2019-06-10T23:29:36.330Z,9.15
2019-06-10T23:32:43.331Z,7.05
2019-06-10T23:35:50.316Z,7.95
2019-06-10T23:38:57.134Z,8.30
2019-06-10T23:42:04.201Z,7.55
2019-06-10T23:45:12.882Z,7.83
2019-06-10T23:48:19.507Z,6.00
2019-06-10T23:51:26.046Z,8.95
2019-06-10T23:54:32.514Z,7.35
2019-06-10T23:57:39.268Z,7.33
